createdAt,value
2023-02-27T00:01:41.711Z,1.30
2023-02-27T00:04:27.163Z,1.30
2023-02-27T00:07:12.797Z,0.80
2023-02-27T00:09:57.812Z,1.30
2023-02-27T00:12:44.436Z,1.30
2023-02-27T00:15:32.445Z,1.20
2023-02-27T00:18:17.488Z,1.20
2023-02-27T00:21:03.120Z,1.20
2023-02-27T00:23:48.415Z,1.20
2023-02-27T00:26:33.706Z,1.20
2023-02-27T00:29:19.794Z,1.20
2023-02-27T00:32:04.971Z,1.20
2023-02-27T00:34:50.425Z,1.20
2023-02-27T00:37:36.468Z,1.20
2023-02-27T00:40:21.974Z,1.20
2023-02-27T00:43:07.034Z,1.20
2023-02-27T00:45:52.530Z,1.20
2023-02-27T00:48:38.044Z,1.10
2023-02-27T00:51:23.553Z,1.10
2023-02-27T00:54:09.635Z,1.10
2023-02-27T00:56:54.616Z,1.10
2023-02-27T00:59:40.060Z,1.10
2023-02-27T01:02:25.445Z,1.10
2023-02-27T01:05:11.152Z,1.10
2023-02-27T01:07:56.530Z,1.10
2023-02-27T01:10:41.794Z,1.10
2023-02-27T01:13:27.304Z,1.10
2023-02-27T01:16:13.281Z,1.20
2023-02-27T01:18:58.447Z,1.20
2023-02-27T01:21:44.666Z,1.20
2023-02-27T01:24:29.745Z,1.20
2023-02-27T01:27:15.257Z,1.10
2023-02-27T01:30:00.632Z,1.10
2023-02-27T01:32:46.184Z,1.10
2023-02-27T01:35:31.671Z,1.00
2023-02-27T01:38:17.190Z,1.00
2023-02-27T01:41:03.021Z,0.90
2023-02-27T01:44:00.350Z,0.90
2023-02-27T01:46:45.690Z,0.90
2023-02-27T01:49:34.604Z,0.90
2023-02-27T01:52:19.799Z,0.90
2023-02-27T01:55:08.518Z,0.80
2023-02-27T01:57:54.605Z,0.80
2023-02-27T02:00:40.794Z,0.80
2023-02-27T02:03:52.080Z,0.80
2023-02-27T02:06:40.974Z,0.80
2023-02-27T02:09:28.462Z,0.70
2023-02-27T02:12:16.487Z,0.80
2023-02-27T02:15:01.708Z,0.80
2023-02-27T02:18:11.270Z,0.70
2023-02-27T02:21:28.806Z,0.70
2023-02-27T02:24:29.286Z,0.70
2023-02-27T02:27:19.093Z,0.70
2023-02-27T02:30:26.186Z,0.70
2023-02-27T02:33:20.703Z,0.70
2023-02-27T02:36:14.891Z,0.60
2023-02-27T02:39:01.251Z,0.70
2023-02-27T02:41:52.986Z,0.70
2023-02-27T02:45:06.642Z,0.70
2023-02-27T02:48:11.785Z,0.70
2023-02-27T02:51:06.685Z,0.80
2023-02-27T02:53:55.800Z,0.70
2023-02-27T02:56:54.001Z,0.70
2023-02-27T02:59:47.483Z,0.70
2023-02-27T03:02:40.984Z,0.70
2023-02-27T03:05:32.788Z,0.60
2023-02-27T03:08:22.884Z,0.70
2023-02-27T03:11:08.491Z,0.70
2023-02-27T03:14:00.048Z,0.60
2023-02-27T03:16:50.137Z,0.60
2023-02-27T03:19:44.970Z,0.60
2023-02-27T03:22:37.734Z,0.60
2023-02-27T03:25:27.132Z,0.50
2023-02-27T03:28:22.138Z,0.40
2023-02-27T03:31:27.775Z,0.40
2023-02-27T03:34:24.599Z,0.20
2023-02-27T03:37:23.713Z,0.20
2023-02-27T03:40:23.788Z,0.30
2023-02-27T03:43:19.133Z,0.30
2023-02-27T03:46:11.778Z,0.20
2023-02-27T03:48:57.042Z,0.20
2023-02-27T03:51:42.802Z,0.20
2023-02-27T03:54:35.690Z,0.20
2023-02-27T03:57:20.992Z,0.20
2023-02-27T04:00:09.083Z,0.20
2023-02-27T04:02:58.842Z,0.20
2023-02-27T04:05:44.649Z,0.10
2023-02-27T04:08:50.461Z,0.10
2023-02-27T04:11:46.399Z,0.20
2023-02-27T04:15:03.909Z,0.20
2023-02-27T04:18:26.979Z,0.20
2023-02-27T04:21:36.934Z,0.00
2023-02-27T04:24:45.641Z,-0.10
2023-02-27T04:27:45.004Z,-0.10
2023-02-27T04:30:47.137Z,-0.10
2023-02-27T04:33:54.787Z,-0.30
2023-02-27T04:36:46.493Z,-0.40
2023-02-27T04:39:38.525Z,-0.40
2023-02-27T04:42:27.118Z,-0.40
2023-02-27T04:45:17.853Z,-0.30
2023-02-27T04:48:09.667Z,-0.20
2023-02-27T04:51:04.563Z,-0.10
2023-02-27T04:53:58.790Z,-0.10
2023-02-27T04:56:55.799Z,0.00
2023-02-27T04:59:46.264Z,0.00
2023-02-27T05:02:35.859Z,0.00
2023-02-27T05:05:33.126Z,0.10
2023-02-27T05:08:29.564Z,0.10
2023-02-27T05:11:52.014Z,0.00
2023-02-27T05:14:44.034Z,0.00
2023-02-27T05:17:36.594Z,0.00
2023-02-27T05:20:28.338Z,-0.10
2023-02-27T05:23:29.321Z,-0.20
2023-02-27T05:26:26.425Z,-0.30
2023-02-27T05:29:47.004Z,-0.30
2023-02-27T05:32:53.198Z,-0.30
2023-02-27T05:35:47.061Z,-0.30
2023-02-27T05:38:42.260Z,-0.20
2023-02-27T05:41:57.254Z,-0.20
2023-02-27T05:44:51.688Z,-0.20
2023-02-27T05:47:43.875Z,-0.20
2023-02-27T05:50:31.942Z,-0.20
2023-02-27T05:53:20.102Z,-0.30
2023-02-27T05:56:08.100Z,-0.30
2023-02-27T05:59:19.016Z,-0.30
2023-02-27T06:02:04.742Z,-0.40
2023-02-27T06:04:50.037Z,-0.40
2023-02-27T06:07:36.536Z,-0.30
2023-02-27T06:10:22.697Z,-0.50
2023-02-27T06:13:07.789Z,-0.40
2023-02-27T06:15:53.554Z,-0.40
2023-02-27T06:18:38.638Z,-0.30
2023-02-27T06:21:23.944Z,-0.30
2023-02-27T06:24:09.296Z,-0.30
2023-02-27T06:26:54.765Z,0.40
2023-02-27T06:29:40.012Z,0.60
2023-02-27T06:32:25.996Z,0.40
2023-02-27T06:35:11.478Z,0.30
2023-02-27T06:37:57.361Z,0.00
2023-02-27T06:40:42.696Z,0.10
2023-02-27T06:43:28.132Z,0.10
2023-02-27T06:46:13.677Z,0.10
2023-02-27T06:48:58.830Z,0.00
2023-02-27T06:51:45.157Z,0.00
2023-02-27T06:54:30.841Z,0.00
2023-02-27T06:57:16.100Z,0.00
2023-02-27T07:00:01.853Z,0.10
2023-02-27T07:02:46.876Z,0.00
2023-02-27T07:05:32.354Z,0.00
2023-02-27T07:08:17.908Z,0.10
2023-02-27T07:11:03.097Z,0.00
2023-02-27T07:13:48.645Z,0.00
2023-02-27T07:16:33.971Z,0.00
2023-02-27T07:19:19.788Z,0.00
2023-02-27T07:22:05.265Z,0.20
2023-02-27T07:24:50.237Z,0.40
2023-02-27T07:27:35.670Z,0.40
2023-02-27T07:30:21.062Z,0.30
2023-02-27T07:33:06.693Z,0.10
2023-02-27T07:35:52.167Z,0.10
2023-02-27T07:38:37.422Z,0.20
2023-02-27T07:41:30.228Z,0.30
2023-02-27T07:44:15.708Z,0.30
2023-02-27T07:47:00.996Z,0.40
2023-02-27T07:49:46.278Z,0.40
2023-02-27T07:52:32.667Z,0.40
2023-02-27T07:55:17.998Z,0.30
2023-02-27T07:58:03.448Z,0.10
2023-02-27T08:00:49.055Z,0.20
2023-02-27T08:03:34.206Z,0.30
2023-02-27T08:06:19.548Z,0.30
2023-02-27T08:09:05.890Z,0.30
2023-02-27T08:11:51.188Z,0.30
2023-02-27T08:14:36.642Z,0.40
2023-02-27T08:17:21.930Z,0.40
2023-02-27T08:20:07.987Z,0.50
2023-02-27T08:22:54.115Z,0.70
2023-02-27T08:25:39.527Z,0.70
2023-02-27T08:28:25.629Z,0.70
2023-02-27T08:31:10.920Z,0.60
2023-02-27T08:34:04.430Z,0.50
2023-02-27T08:36:54.775Z,0.50
2023-02-27T08:39:40.120Z,0.40
2023-02-27T08:42:26.898Z,0.50
2023-02-27T08:45:12.537Z,0.70
2023-02-27T08:47:58.036Z,0.80
2023-02-27T08:50:43.983Z,0.90
2023-02-27T08:53:29.825Z,1.10
2023-02-27T08:56:15.206Z,1.20
2023-02-27T08:59:00.973Z,1.20
2023-02-27T09:01:46.133Z,1.30
2023-02-27T09:04:31.607Z,1.30
2023-02-27T09:07:17.043Z,1.20
2023-02-27T09:10:02.396Z,1.10
2023-02-27T09:12:49.237Z,1.30
2023-02-27T09:15:37.862Z,1.50
2023-02-27T09:18:23.556Z,1.60
2023-02-27T09:21:08.746Z,1.80
2023-02-27T09:23:54.895Z,2.10
2023-02-27T09:26:45.931Z,2.20
2023-02-27T09:29:31.990Z,2.30
2023-02-27T09:32:17.487Z,2.60
2023-02-27T09:35:03.000Z,2.80
2023-02-27T09:37:49.558Z,2.90
2023-02-27T09:40:40.550Z,2.70
2023-02-27T09:43:31.001Z,3.00
2023-02-27T09:46:19.121Z,3.20
2023-02-27T09:49:05.026Z,3.40
2023-02-27T09:51:53.452Z,3.40
2023-02-27T09:54:38.642Z,3.40
2023-02-27T09:57:52.047Z,3.40
2023-02-27T10:00:51.479Z,3.50
2023-02-27T10:03:45.172Z,3.80
2023-02-27T10:06:54.553Z,3.90
2023-02-27T10:09:47.689Z,3.90
2023-02-27T10:12:51.922Z,3.60
2023-02-27T10:15:48.661Z,3.50
2023-02-27T10:18:43.711Z,3.60
2023-02-27T10:21:39.406Z,3.60
2023-02-27T10:24:33.704Z,3.60
2023-02-27T10:27:21.228Z,3.60
2023-02-27T10:30:29.274Z,3.70
2023-02-27T10:33:28.486Z,3.80
2023-02-27T10:36:32.197Z,4.00
2023-02-27T10:39:20.897Z,4.30
2023-02-27T10:42:09.632Z,4.40
2023-02-27T10:44:56.006Z,3.70
2023-02-27T10:47:41.544Z,3.80
2023-02-27T10:50:30.221Z,4.10
2023-02-27T10:53:23.022Z,4.20
2023-02-27T10:56:14.228Z,4.50
2023-02-27T10:59:07.873Z,4.80
2023-02-27T11:01:57.793Z,5.10
2023-02-27T11:04:53.890Z,5.10
2023-02-27T11:07:39.865Z,5.30
2023-02-27T11:10:27.559Z,5.30
2023-02-27T11:13:23.182Z,5.30
2023-02-27T11:16:15.870Z,5.00
2023-02-27T11:19:07.599Z,4.80
2023-02-27T11:22:17.273Z,4.70
2023-02-27T11:25:23.890Z,4.20
2023-02-27T11:28:30.305Z,4.20
2023-02-27T11:31:21.418Z,4.30
2023-02-27T11:34:08.284Z,4.20
2023-02-27T11:36:57.859Z,4.50
2023-02-27T11:39:52.694Z,4.80
2023-02-27T11:42:52.122Z,5.20
2023-02-27T11:46:12.168Z,5.10
2023-02-27T11:48:54.996Z,4.90
2023-02-27T11:51:40.226Z,4.70
2023-02-27T11:54:34.670Z,4.60
2023-02-27T11:57:33.691Z,4.50
2023-02-27T12:00:45.435Z,4.70
2023-02-27T12:03:52.270Z,4.80
2023-02-27T12:06:51.936Z,4.80
2023-02-27T12:09:51.494Z,4.70
2023-02-27T12:12:45.349Z,4.90
2023-02-27T12:15:53.201Z,4.90
2023-02-27T12:18:45.008Z,4.90
2023-02-27T12:21:53.773Z,4.60
2023-02-27T12:25:02.574Z,4.60
2023-02-27T12:28:06.489Z,4.40
2023-02-27T12:31:02.514Z,4.50
2023-02-27T12:34:06.497Z,4.60
2023-02-27T12:36:53.388Z,4.80
2023-02-27T12:39:40.575Z,4.80
2023-02-27T12:42:52.842Z,4.90
2023-02-27T12:45:48.239Z,4.80
2023-02-27T12:48:40.010Z,4.60
2023-02-27T12:51:44.306Z,4.70
2023-02-27T12:54:57.891Z,4.80
2023-02-27T12:58:11.337Z,4.40
2023-02-27T13:01:00.792Z,4.50
2023-02-27T13:03:56.387Z,4.80
2023-02-27T13:06:53.463Z,5.00
2023-02-27T13:09:55.438Z,5.10
2023-02-27T13:12:48.058Z,5.10
2023-02-27T13:15:36.911Z,5.10
2023-02-27T13:18:40.793Z,5.20
2023-02-27T13:21:32.046Z,5.20
2023-02-27T13:24:26.177Z,5.00
2023-02-27T13:27:26.448Z,5.40
2023-02-27T13:30:27.757Z,5.30
2023-02-27T13:33:20.977Z,5.20
2023-02-27T13:36:28.067Z,5.10
2023-02-27T13:39:38.881Z,4.80
2023-02-27T13:42:27.521Z,4.80
2023-02-27T13:45:48.673Z,4.80
2023-02-27T13:48:34.326Z,4.90
2023-02-27T13:51:35.057Z,4.90
2023-02-27T13:54:31.763Z,5.00
2023-02-27T13:57:25.966Z,5.20
2023-02-27T14:00:26.691Z,5.20
2023-02-27T14:03:25.745Z,5.20
2023-02-27T14:06:11.880Z,5.00
2023-02-27T14:09:14.900Z,5.00
2023-02-27T14:12:03.853Z,4.80
2023-02-27T14:14:50.476Z,5.10
2023-02-27T14:17:38.990Z,5.50
2023-02-27T14:20:27.140Z,5.80
2023-02-27T14:23:20.660Z,5.90
2023-02-27T14:26:19.427Z,6.00
2023-02-27T14:29:05.179Z,6.20
2023-02-27T14:31:53.003Z,6.30
2023-02-27T14:34:40.889Z,6.10
2023-02-27T14:37:27.170Z,6.00
2023-02-27T14:40:30.402Z,5.80
2023-02-27T14:43:34.646Z,5.70
2023-02-27T14:46:26.917Z,5.20
2023-02-27T14:49:35.956Z,4.80
2023-02-27T14:52:29.655Z,4.60
2023-02-27T14:55:27.990Z,4.50
2023-02-27T14:58:21.803Z,4.40
2023-02-27T15:01:09.778Z,4.50
2023-02-27T15:03:58.335Z,4.40
2023-02-27T15:06:47.691Z,4.20
2023-02-27T15:09:42.788Z,4.20
2023-02-27T15:12:28.802Z,4.20
2023-02-27T15:15:19.752Z,4.30
2023-02-27T15:18:13.654Z,4.20
2023-02-27T15:20:59.453Z,4.10
2023-02-27T15:23:44.983Z,4.10
2023-02-27T15:26:34.977Z,4.10
2023-02-27T15:29:27.961Z,4.00
2023-02-27T15:32:22.712Z,3.80
2023-02-27T15:35:24.464Z,3.70
2023-02-27T15:38:34.096Z,3.60
2023-02-27T15:41:19.676Z,3.40
2023-02-27T15:44:05.334Z,3.50
2023-02-27T15:46:51.551Z,3.60
2023-02-27T15:49:38.155Z,3.60
2023-02-27T15:52:25.973Z,3.60
2023-02-27T15:55:16.866Z,3.60
2023-02-27T15:58:03.704Z,3.70
2023-02-27T16:01:00.642Z,3.80
2023-02-27T16:03:48.710Z,3.80
2023-02-27T16:06:41.414Z,3.80
2023-02-27T16:09:34.985Z,3.80
2023-02-27T16:12:29.612Z,3.80
2023-02-27T16:15:31.404Z,3.70
2023-02-27T16:18:16.516Z,3.40
2023-02-27T16:21:11.660Z,3.40
2023-02-27T16:24:29.465Z,3.50
2023-02-27T16:27:26.572Z,3.60
2023-02-27T16:30:12.647Z,3.70
2023-02-27T16:33:01.860Z,3.70
2023-02-27T16:35:47.690Z,3.60
2023-02-27T16:38:33.274Z,3.60
2023-02-27T16:41:20.581Z,3.50
2023-02-27T16:44:06.004Z,3.50
2023-02-27T16:46:55.859Z,3.50
2023-02-27T16:49:40.905Z,3.30
2023-02-27T16:52:26.311Z,3.30
2023-02-27T16:55:11.690Z,3.30
2023-02-27T16:57:57.226Z,3.30
2023-02-27T17:00:43.257Z,3.20
2023-02-27T17:03:28.127Z,3.20
2023-02-27T17:06:14.810Z,3.10
2023-02-27T17:08:59.777Z,3.00
2023-02-27T17:11:45.134Z,3.10
2023-02-27T17:14:30.399Z,3.00
2023-02-27T17:17:15.639Z,2.90
2023-02-27T17:20:01.841Z,2.90
2023-02-27T17:22:46.906Z,3.00
2023-02-27T17:25:32.366Z,2.90
2023-02-27T17:28:17.635Z,2.90
2023-02-27T17:31:15.243Z,2.90
2023-02-27T17:34:00.386Z,2.90
2023-02-27T17:36:45.985Z,2.80
2023-02-27T17:39:31.130Z,2.80
2023-02-27T17:42:18.486Z,2.80
2023-02-27T17:45:06.310Z,2.90
2023-02-27T17:47:51.864Z,2.90
2023-02-27T17:50:37.301Z,3.00
2023-02-27T17:53:22.810Z,3.10
2023-02-27T17:56:08.640Z,3.10
2023-02-27T17:58:53.743Z,3.10
2023-02-27T18:01:39.156Z,3.10
2023-02-27T18:04:25.201Z,3.10
2023-02-27T18:07:10.598Z,3.00
2023-02-27T18:09:55.974Z,2.90
2023-02-27T18:12:42.031Z,2.80
2023-02-27T18:15:27.584Z,2.80
2023-02-27T18:18:13.795Z,2.80
2023-02-27T18:21:09.147Z,2.80
2023-02-27T18:23:54.900Z,2.70
2023-02-27T18:26:40.140Z,2.80
2023-02-27T18:29:25.578Z,2.90
2023-02-27T18:32:11.031Z,2.90
2023-02-27T18:34:56.220Z,2.80
2023-02-27T18:37:41.621Z,2.80
2023-02-27T18:40:27.081Z,2.90
2023-02-27T18:43:13.900Z,2.90
2023-02-27T18:46:00.494Z,2.80
2023-02-27T18:48:46.183Z,2.80
2023-02-27T18:51:31.628Z,2.80
2023-02-27T18:54:16.769Z,2.80
2023-02-27T18:57:02.193Z,2.80
2023-02-27T18:59:47.763Z,2.80
2023-02-27T19:02:33.149Z,2.70
2023-02-27T19:05:19.003Z,2.80
2023-02-27T19:08:04.416Z,2.70
2023-02-27T19:10:49.646Z,2.70
2023-02-27T19:13:34.996Z,2.70
2023-02-27T19:16:20.363Z,2.60
2023-02-27T19:19:07.552Z,2.60
2023-02-27T19:21:52.684Z,2.60
2023-02-27T19:24:38.008Z,2.50
2023-02-27T19:27:23.417Z,2.50
2023-02-27T19:30:09.559Z,2.50
2023-02-27T19:32:55.029Z,2.50
2023-02-27T19:35:43.236Z,2.50
2023-02-27T19:38:28.676Z,2.40
2023-02-27T19:41:16.620Z,2.40
2023-02-27T19:44:02.130Z,2.40
2023-02-27T19:46:51.288Z,2.30
2023-02-27T19:49:37.594Z,2.30
2023-02-27T19:52:22.830Z,2.20
2023-02-27T19:55:08.722Z,2.30
2023-02-27T19:57:53.894Z,2.40
2023-02-27T20:00:40.343Z,2.40
2023-02-27T20:03:26.472Z,2.30
2023-02-27T20:06:17.494Z,2.20
2023-02-27T20:09:02.650Z,2.10
2023-02-27T20:11:51.671Z,2.00
2023-02-27T20:14:37.621Z,2.00
2023-02-27T20:17:22.729Z,2.10
2023-02-27T20:20:09.462Z,2.10
2023-02-27T20:22:54.494Z,2.10
2023-02-27T20:25:39.749Z,2.10
2023-02-27T20:28:24.990Z,2.00
2023-02-27T20:31:12.577Z,2.00
2023-02-27T20:34:00.805Z,1.90
2023-02-27T20:36:45.888Z,1.90
2023-02-27T20:39:31.338Z,1.90
2023-02-27T20:42:16.883Z,1.90
2023-02-27T20:45:02.099Z,1.70
2023-02-27T20:47:47.489Z,1.80
2023-02-27T20:50:34.046Z,2.00
2023-02-27T20:53:19.225Z,2.00
2023-02-27T20:56:06.058Z,2.10
2023-02-27T20:58:51.037Z,2.10
2023-02-27T21:01:38.481Z,2.20
2023-02-27T21:04:47.099Z,2.20
2023-02-27T21:07:32.674Z,2.20
2023-02-27T21:10:18.441Z,2.20
2023-02-27T21:13:03.955Z,2.10
2023-02-27T21:15:49.240Z,2.10
2023-02-27T21:18:34.950Z,2.10
2023-02-27T21:21:23.416Z,2.10
2023-02-27T21:24:08.612Z,2.00
2023-02-27T21:26:54.116Z,1.90
2023-02-27T21:32:25.405Z,1.80
2023-02-27T21:35:11.620Z,1.60
2023-02-27T21:37:56.621Z,1.70
2023-02-27T21:40:42.311Z,1.70
2023-02-27T21:43:27.330Z,1.70
2023-02-27T21:46:13.047Z,1.60
2023-02-27T21:48:58.689Z,1.60
2023-02-27T21:51:44.371Z,1.70
2023-02-27T21:54:30.094Z,1.80
2023-02-27T21:57:15.379Z,1.70
2023-02-27T22:00:00.936Z,1.70
2023-02-27T22:02:46.425Z,1.60
2023-02-27T22:05:31.809Z,1.60
2023-02-27T22:08:17.415Z,1.50
2023-02-27T22:11:02.770Z,1.50
2023-02-27T22:13:48.438Z,1.50
2023-02-27T22:16:34.491Z,1.60
2023-02-27T22:19:19.919Z,1.60
2023-02-27T22:22:05.766Z,1.60
2023-02-27T22:24:51.001Z,1.50
2023-02-27T22:27:36.473Z,1.60
2023-02-27T22:30:21.935Z,1.60
2023-02-27T22:33:07.691Z,1.50
2023-02-27T22:35:53.143Z,1.60
2023-02-27T22:38:38.535Z,1.60
2023-02-27T22:41:28.628Z,1.60
2023-02-27T22:44:15.795Z,1.50
2023-02-27T22:47:00.829Z,1.50
2023-02-27T22:49:46.413Z,1.50
2023-02-27T22:52:31.977Z,1.50
2023-02-27T22:55:17.459Z,1.60
2023-02-27T22:58:02.960Z,1.50
2023-02-27T23:00:48.188Z,1.60
2023-02-27T23:03:33.583Z,1.60
2023-02-27T23:06:25.644Z,1.60
2023-02-27T23:09:15.085Z,1.50
2023-02-27T23:12:02.117Z,1.50
2023-02-27T23:14:47.575Z,1.50
2023-02-27T23:17:33.042Z,1.50
2023-02-27T23:20:18.500Z,1.40
2023-02-27T23:23:05.452Z,1.40
2023-02-27T23:25:50.959Z,1.40
2023-02-27T23:28:37.377Z,1.40
2023-02-27T23:31:23.256Z,1.40
2023-02-27T23:34:09.182Z,1.30
2023-02-27T23:36:54.381Z,1.20
2023-02-27T23:39:39.803Z,1.10
2023-02-27T23:42:43.689Z,1.00
2023-02-27T23:45:29.160Z,1.10
2023-02-27T23:48:14.414Z,0.80
2023-02-27T23:51:02.762Z,0.70
2023-02-27T23:53:47.896Z,0.80
2023-02-27T23:56:33.175Z,0.80
2023-02-27T23:59:18.608Z,0.60
